sensor_id;sensor_type;location;lat;lon;timestamp;temperature;humidity
25512;DHT22;13414;44.534;18.700;2024-01-30T00:01:40;-1.40;1.00
25512;DHT22;13414;44.534;18.700;2024-01-30T00:04:09;-1.50;99.90
25512;DHT22;13414;44.534;18.700;2024-01-30T00:06:38;-1.60;1.00
25512;DHT22;13414;44.534;18.700;2024-01-30T00:09:06;-1.50;1.00
25512;DHT22;13414;44.534;18.700;2024-01-30T00:11:35;-1.60;1.00
25512;DHT22;13414;44.534;18.700;2024-01-30T00:14:02;-1.50;1.00
25512;DHT22;13414;44.534;18.700;2024-01-30T00:16:30;-1.50;1.00
25512;DHT22;13414;44.534;18.700;2024-01-30T00:18:58;-1.60;1.00
25512;DHT22;13414;44.534;18.700;2024-01-30T00:21:28;-1.60;1.00
25512;DHT22;13414;44.534;18.700;2024-01-30T00:23:57;-1.70;1.00
25512;DHT22;13414;44.534;18.700;2024-01-30T00:26:24;-1.70;90.00
25512;DHT22;13414;44.534;18.700;2024-01-30T00:28:52;-1.70;99.90
25512;DHT22;13414;44.534;18.700;2024-01-30T00:31:20;-1.70;1.00
25512;DHT22;13414;44.534;18.700;2024-01-30T00:33:47;-1.70;1.00
25512;DHT22;13414;44.534;18.700;2024-01-30T00:36:15;-1.60;1.00
25512;DHT22;13414;44.534;18.700;2024-01-30T00:38:43;-1.70;99.90
25512;DHT22;13414;44.534;18.700;2024-01-30T00:41:12;-1.70;1.00
25512;DHT22;13414;44.534;18.700;2024-01-30T00:43:39;-1.70;99.90
25512;DHT22;13414;44.534;18.700;2024-01-30T00:46:07;-1.70;1.00
25512;DHT22;13414;44.534;18.700;2024-01-30T00:48:35;-1.70;99.90
25512;DHT22;13414;44.534;18.700;2024-01-30T00:51:03;-1.70;99.90
25512;DHT22;13414;44.534;18.700;2024-01-30T00:53:31;-1.80;99.90
25512;DHT22;13414;44.534;18.700;2024-01-30T00:56:00;-1.70;1.00
25512;DHT22;13414;44.534;18.700;2024-01-30T00:58:28;-1.80;99.90
25512;DHT22;13414;44.534;18.700;2024-01-30T01:00:56;-1.80;99.90
25512;DHT22;13414;44.534;18.700;2024-01-30T01:03:23;-1.80;99.90
25512;DHT22;13414;44.534;18.700;2024-01-30T01:05:51;-1.80;99.90
25512;DHT22;13414;44.534;18.700;2024-01-30T01:08:18;-1.90;99.90
25512;DHT22;13414;44.534;18.700;2024-01-30T01:10:46;-1.90;99.90
25512;DHT22;13414;44.534;18.700;2024-01-30T01:13:13;-2.00;99.90
25512;DHT22;13414;44.534;18.700;2024-01-30T01:15:43;-2.00;1.00
25512;DHT22;13414;44.534;18.700;2024-01-30T01:18:10;-1.90;99.90
25512;DHT22;13414;44.534;18.700;2024-01-30T01:20:37;-1.90;99.90
25512;DHT22;13414;44.534;18.700;2024-01-30T01:23:05;-1.90;1.00
25512;DHT22;13414;44.534;18.700;2024-01-30T01:25:32;-2.00;1.00
25512;DHT22;13414;44.534;18.700;2024-01-30T01:28:00;-2.10;4.00
25512;DHT22;13414;44.534;18.700;2024-01-30T01:30:27;-2.00;99.90
25512;DHT22;13414;44.534;18.700;2024-01-30T01:32:56;-2.10;1.00
25512;DHT22;13414;44.534;18.700;2024-01-30T01:35:27;-2.10;1.00
25512;DHT22;13414;44.534;18.700;2024-01-30T01:37:54;-2.10;1.00
25512;DHT22;13414;44.534;18.700;2024-01-30T01:40:23;-2.00;32.40
25512;DHT22;13414;44.534;18.700;2024-01-30T01:42:50;-2.10;1.00
25512;DHT22;13414;44.534;18.700;2024-01-30T01:45:19;-2.20;99.90
25512;DHT22;13414;44.534;18.700;2024-01-30T01:47:48;-2.20;99.90
25512;DHT22;13414;44.534;18.700;2024-01-30T01:50:20;-2.20;99.90
25512;DHT22;13414;44.534;18.700;2024-01-30T01:52:48;-2.30;1.00
25512;DHT22;13414;44.534;18.700;2024-01-30T01:55:16;-2.30;1.00
25512;DHT22;13414;44.534;18.700;2024-01-30T01:57:45;-2.30;1.00
25512;DHT22;13414;44.534;18.700;2024-01-30T02:00:13;-2.30;1.00
25512;DHT22;13414;44.534;18.700;2024-01-30T02:02:42;-2.30;1.00
25512;DHT22;13414;44.534;18.700;2024-01-30T02:05:11;-2.30;1.00
25512;DHT22;13414;44.534;18.700;2024-01-30T02:07:40;-2.40;1.00
25512;DHT22;13414;44.534;18.700;2024-01-30T02:10:08;-2.40;99.90
25512;DHT22;13414;44.534;18.700;2024-01-30T02:12:36;-2.40;99.90
25512;DHT22;13414;44.534;18.700;2024-01-30T02:15:04;-2.40;99.90
25512;DHT22;13414;44.534;18.700;2024-01-30T02:17:33;-2.40;1.00
25512;DHT22;13414;44.534;18.700;2024-01-30T02:20:01;-2.30;2.30
25512;DHT22;13414;44.534;18.700;2024-01-30T02:22:31;-2.30;1.00
25512;DHT22;13414;44.534;18.700;2024-01-30T02:24:59;-2.30;1.00
25512;DHT22;13414;44.534;18.700;2024-01-30T02:27:27;-2.30;1.00
25512;DHT22;13414;44.534;18.700;2024-01-30T02:29:54;-2.40;1.00
25512;DHT22;13414;44.534;18.700;2024-01-30T02:32:21;-2.40;1.00
25512;DHT22;13414;44.534;18.700;2024-01-30T02:34:49;-2.30;1.00
25512;DHT22;13414;44.534;18.700;2024-01-30T02:37:17;-2.40;99.90
25512;DHT22;13414;44.534;18.700;2024-01-30T02:39:46;-2.50;1.00
25512;DHT22;13414;44.534;18.700;2024-01-30T02:42:13;-2.60;1.00
25512;DHT22;13414;44.534;18.700;2024-01-30T02:44:41;-2.80;1.00
25512;DHT22;13414;44.534;18.700;2024-01-30T02:47:09;-2.80;1.00
25512;DHT22;13414;44.534;18.700;2024-01-30T02:49:36;-2.80;99.90
25512;DHT22;13414;44.534;18.700;2024-01-30T02:52:04;-2.80;99.90
25512;DHT22;13414;44.534;18.700;2024-01-30T02:54:32;-2.70;1.00
25512;DHT22;13414;44.534;18.700;2024-01-30T02:57:01;-2.70;99.90
25512;DHT22;13414;44.534;18.700;2024-01-30T02:59:28;-2.60;25.90
25512;DHT22;13414;44.534;18.700;2024-01-30T03:01:55;-2.60;1.00
25512;DHT22;13414;44.534;18.700;2024-01-30T03:04:23;-2.60;99.90
25512;DHT22;13414;44.534;18.700;2024-01-30T03:06:51;-2.70;99.90
25512;DHT22;13414;44.534;18.700;2024-01-30T03:09:19;-2.70;99.90
25512;DHT22;13414;44.534;18.700;2024-01-30T03:11:46;-2.80;1.00
25512;DHT22;13414;44.534;18.700;2024-01-30T03:14:15;-2.70;1.00
25512;DHT22;13414;44.534;18.700;2024-01-30T03:16:42;-2.70;17.30
25512;DHT22;13414;44.534;18.700;2024-01-30T03:19:10;-2.70;34.30
25512;DHT22;13414;44.534;18.700;2024-01-30T03:21:38;-2.80;1.00
25512;DHT22;13414;44.534;18.700;2024-01-30T03:24:06;-2.90;1.00
25512;DHT22;13414;44.534;18.700;2024-01-30T03:26:35;-3.00;1.00
25512;DHT22;13414;44.534;18.700;2024-01-30T03:29:02;-3.00;1.00
25512;DHT22;13414;44.534;18.700;2024-01-30T03:31:31;-3.00;99.90
25512;DHT22;13414;44.534;18.700;2024-01-30T03:33:59;-3.10;99.90
25512;DHT22;13414;44.534;18.700;2024-01-30T03:36:26;-3.10;99.90
25512;DHT22;13414;44.534;18.700;2024-01-30T03:38:53;-3.10;99.90
25512;DHT22;13414;44.534;18.700;2024-01-30T03:41:21;-3.20;1.00
25512;DHT22;13414;44.534;18.700;2024-01-30T03:43:48;-3.10;8.70
25512;DHT22;13414;44.534;18.700;2024-01-30T03:46:16;-3.00;99.90
25512;DHT22;13414;44.534;18.700;2024-01-30T03:48:45;-3.10;99.90
25512;DHT22;13414;44.534;18.700;2024-01-30T03:51:13;-3.10;99.90
25512;DHT22;13414;44.534;18.700;2024-01-30T03:53:42;-3.00;99.90
25512;DHT22;13414;44.534;18.700;2024-01-30T03:56:10;-3.00;1.00
25512;DHT22;13414;44.534;18.700;2024-01-30T03:58:37;-3.10;1.00
25512;DHT22;13414;44.534;18.700;2024-01-30T04:01:05;-3.10;1.00
25512;DHT22;13414;44.534;18.700;2024-01-30T04:03:32;-3.10;1.00
25512;DHT22;13414;44.534;18.700;2024-01-30T04:06:01;-3.00;1.00
25512;DHT22;13414;44.534;18.700;2024-01-30T04:08:29;-3.10;99.90
25512;DHT22;13414;44.534;18.700;2024-01-30T04:10:56;-3.00;99.90
25512;DHT22;13414;44.534;18.700;2024-01-30T04:13:24;-3.10;1.00
25512;DHT22;13414;44.534;18.700;2024-01-30T04:15:53;-3.00;99.90
25512;DHT22;13414;44.534;18.700;2024-01-30T04:18:24;-3.00;1.00
25512;DHT22;13414;44.534;18.700;2024-01-30T04:20:52;-3.10;1.00
25512;DHT22;13414;44.534;18.700;2024-01-30T04:23:21;-3.10;1.00
25512;DHT22;13414;44.534;18.700;2024-01-30T04:25:48;-3.10;1.00
25512;DHT22;13414;44.534;18.700;2024-01-30T04:28:16;-3.20;1.00
25512;DHT22;13414;44.534;18.700;2024-01-30T04:30:44;-3.10;1.00
25512;DHT22;13414;44.534;18.700;2024-01-30T04:33:11;-3.20;1.00
25512;DHT22;13414;44.534;18.700;2024-01-30T04:35:39;-3.20;1.00
25512;DHT22;13414;44.534;18.700;2024-01-30T04:38:08;-3.30;99.90
25512;DHT22;13414;44.534;18.700;2024-01-30T04:40:44;-3.20;99.90
25512;DHT22;13414;44.534;18.700;2024-01-30T04:43:19;-3.20;82.80
25512;DHT22;13414;44.534;18.700;2024-01-30T04:45:48;-3.30;99.90
25512;DHT22;13414;44.534;18.700;2024-01-30T04:48:16;-3.30;10.50
25512;DHT22;13414;44.534;18.700;2024-01-30T04:50:45;-3.30;99.90
25512;DHT22;13414;44.534;18.700;2024-01-30T04:53:13;-3.20;99.90
25512;DHT22;13414;44.534;18.700;2024-01-30T04:58:12;-3.40;1.00
25512;DHT22;13414;44.534;18.700;2024-01-30T05:00:40;-3.40;99.90
25512;DHT22;13414;44.534;18.700;2024-01-30T05:03:07;-3.40;99.90
25512;DHT22;13414;44.534;18.700;2024-01-30T05:05:34;-3.40;1.00
25512;DHT22;13414;44.534;18.700;2024-01-30T05:08:02;-3.50;1.00
25512;DHT22;13414;44.534;18.700;2024-01-30T05:10:30;-3.50;99.90
25512;DHT22;13414;44.534;18.700;2024-01-30T05:12:57;-3.50;99.90
25512;DHT22;13414;44.534;18.700;2024-01-30T05:15:26;-3.60;61.40
25512;DHT22;13414;44.534;18.700;2024-01-30T05:17:54;-3.70;99.90
25512;DHT22;13414;44.534;18.700;2024-01-30T05:20:21;-3.70;1.00
25512;DHT22;13414;44.534;18.700;2024-01-30T05:22:50;-3.70;1.00
25512;DHT22;13414;44.534;18.700;2024-01-30T05:25:18;-3.60;1.00
25512;DHT22;13414;44.534;18.700;2024-01-30T05:27:45;-3.60;1.00
25512;DHT22;13414;44.534;18.700;2024-01-30T05:30:13;-3.60;1.00
25512;DHT22;13414;44.534;18.700;2024-01-30T05:32:43;-3.70;1.00
25512;DHT22;13414;44.534;18.700;2024-01-30T05:35:11;-3.70;1.00
25512;DHT22;13414;44.534;18.700;2024-01-30T05:37:39;-3.70;1.00
25512;DHT22;13414;44.534;18.700;2024-01-30T05:40:08;-3.70;99.90
25512;DHT22;13414;44.534;18.700;2024-01-30T05:42:35;-3.60;99.90
25512;DHT22;13414;44.534;18.700;2024-01-30T05:45:03;-3.60;99.90
25512;DHT22;13414;44.534;18.700;2024-01-30T05:47:31;-3.60;99.90
25512;DHT22;13414;44.534;18.700;2024-01-30T05:50:00;-3.60;70.60
25512;DHT22;13414;44.534;18.700;2024-01-30T05:52:28;-3.60;1.00
25512;DHT22;13414;44.534;18.700;2024-01-30T05:54:55;-3.60;76.30
25512;DHT22;13414;44.534;18.700;2024-01-30T05:57:23;-3.70;1.00
25512;DHT22;13414;44.534;18.700;2024-01-30T05:59:51;-3.80;23.70
25512;DHT22;13414;44.534;18.700;2024-01-30T06:02:18;-3.70;1.00
25512;DHT22;13414;44.534;18.700;2024-01-30T06:04:45;-3.80;99.90
25512;DHT22;13414;44.534;18.700;2024-01-30T06:07:21;-3.80;99.90
25512;DHT22;13414;44.534;18.700;2024-01-30T06:09:49;-3.80;99.90
25512;DHT22;13414;44.534;18.700;2024-01-30T06:12:16;-3.80;99.90
25512;DHT22;13414;44.534;18.700;2024-01-30T06:14:44;-3.70;99.90
25512;DHT22;13414;44.534;18.700;2024-01-30T06:17:11;-3.60;6.90
25512;DHT22;13414;44.534;18.700;2024-01-30T06:19:39;-3.60;1.00
25512;DHT22;13414;44.534;18.700;2024-01-30T06:22:07;-3.60;1.00
25512;DHT22;13414;44.534;18.700;2024-01-30T06:24:36;-3.60;1.00
25512;DHT22;13414;44.534;18.700;2024-01-30T06:27:04;-3.70;1.00
25512;DHT22;13414;44.534;18.700;2024-01-30T06:29:31;-3.60;1.00
25512;DHT22;13414;44.534;18.700;2024-01-30T06:31:59;-3.70;1.00
25512;DHT22;13414;44.534;18.700;2024-01-30T06:34:27;-3.70;1.00
25512;DHT22;13414;44.534;18.700;2024-01-30T06:36:54;-3.60;29.00
25512;DHT22;13414;44.534;18.700;2024-01-30T06:39:22;-3.60;1.00
25512;DHT22;13414;44.534;18.700;2024-01-30T06:41:51;-3.60;1.00
25512;DHT22;13414;44.534;18.700;2024-01-30T06:44:19;-3.60;1.00
25512;DHT22;13414;44.534;18.700;2024-01-30T06:46:47;-3.60;1.00
25512;DHT22;13414;44.534;18.700;2024-01-30T06:49:14;-3.50;1.00
25512;DHT22;13414;44.534;18.700;2024-01-30T06:51:42;-3.50;99.90
25512;DHT22;13414;44.534;18.700;2024-01-30T06:54:10;-3.40;1.00
25512;DHT22;13414;44.534;18.700;2024-01-30T06:56:37;-3.20;99.90
25512;DHT22;13414;44.534;18.700;2024-01-30T06:59:06;-3.00;99.90
25512;DHT22;13414;44.534;18.700;2024-01-30T07:01:34;-2.70;13.10
25512;DHT22;13414;44.534;18.700;2024-01-30T07:04:03;-2.50;1.00
25512;DHT22;13414;44.534;18.700;2024-01-30T07:06:31;-2.30;99.90
25512;DHT22;13414;44.534;18.700;2024-01-30T07:08:58;-2.10;14.40
25512;DHT22;13414;44.534;18.700;2024-01-30T07:11:26;-1.90;1.00
25512;DHT22;13414;44.534;18.700;2024-01-30T07:13:54;-1.80;1.00
25512;DHT22;13414;44.534;18.700;2024-01-30T07:16:23;-1.80;1.00
25512;DHT22;13414;44.534;18.700;2024-01-30T07:18:51;-1.70;1.00
25512;DHT22;13414;44.534;18.700;2024-01-30T07:21:19;-1.70;1.00
25512;DHT22;13414;44.534;18.700;2024-01-30T07:23:47;-1.80;1.00
25512;DHT22;13414;44.534;18.700;2024-01-30T07:26:15;-1.70;1.00
25512;DHT22;13414;44.534;18.700;2024-01-30T07:28:43;-1.60;1.00
25512;DHT22;13414;44.534;18.700;2024-01-30T07:31:10;-1.50;1.00
25512;DHT22;13414;44.534;18.700;2024-01-30T07:33:39;-1.30;1.00
25512;DHT22;13414;44.534;18.700;2024-01-30T07:36:08;-1.30;1.00
25512;DHT22;13414;44.534;18.700;2024-01-30T07:38:59;-1.00;1.00
25512;DHT22;13414;44.534;18.700;2024-01-30T07:41:27;-0.60;99.90
25512;DHT22;13414;44.534;18.700;2024-01-30T07:44:07;-0.50;99.90
25512;DHT22;13414;44.534;18.700;2024-01-30T07:46:41;-0.40;99.90
25512;DHT22;13414;44.534;18.700;2024-01-30T07:49:19;-0.60;99.90
25512;DHT22;13414;44.534;18.700;2024-01-30T07:51:46;-0.60;1.00
25512;DHT22;13414;44.534;18.700;2024-01-30T07:54:14;-0.60;1.00
25512;DHT22;13414;44.534;18.700;2024-01-30T07:56:41;-0.30;99.90
25512;DHT22;13414;44.534;18.700;2024-01-30T07:59:12;0.00;99.90
25512;DHT22;13414;44.534;18.700;2024-01-30T08:01:40;0.00;99.90
25512;DHT22;13414;44.534;18.700;2024-01-30T08:04:07;0.10;99.90
25512;DHT22;13414;44.534;18.700;2024-01-30T08:06:36;0.20;99.90
25512;DHT22;13414;44.534;18.700;2024-01-30T08:09:04;0.30;99.90
25512;DHT22;13414;44.534;18.700;2024-01-30T08:11:31;0.60;99.90
25512;DHT22;13414;44.534;18.700;2024-01-30T08:13:59;0.90;99.90
25512;DHT22;13414;44.534;18.700;2024-01-30T08:16:26;0.90;99.90
25512;DHT22;13414;44.534;18.700;2024-01-30T08:18:54;0.70;99.90
25512;DHT22;13414;44.534;18.700;2024-01-30T08:21:23;0.90;99.90
25512;DHT22;13414;44.534;18.700;2024-01-30T08:23:52;1.10;99.90
25512;DHT22;13414;44.534;18.700;2024-01-30T08:26:20;1.30;99.90
25512;DHT22;13414;44.534;18.700;2024-01-30T08:28:47;1.60;99.90
25512;DHT22;13414;44.534;18.700;2024-01-30T08:31:16;1.80;99.90
25512;DHT22;13414;44.534;18.700;2024-01-30T08:33:43;2.00;99.90
25512;DHT22;13414;44.534;18.700;2024-01-30T08:36:11;2.10;49.60
25512;DHT22;13414;44.534;18.700;2024-01-30T08:38:41;2.20;69.30
25512;DHT22;13414;44.534;18.700;2024-01-30T08:41:10;2.40;71.90
25512;DHT22;13414;44.534;18.700;2024-01-30T08:43:38;2.40;27.40
25512;DHT22;13414;44.534;18.700;2024-01-30T08:46:05;2.60;43.80
25512;DHT22;13414;44.534;18.700;2024-01-30T08:48:35;2.70;1.00
25512;DHT22;13414;44.534;18.700;2024-01-30T08:51:03;2.90;2.00
25512;DHT22;13414;44.534;18.700;2024-01-30T08:53:34;3.00;1.00
25512;DHT22;13414;44.534;18.700;2024-01-30T08:56:03;3.00;1.00
25512;DHT22;13414;44.534;18.700;2024-01-30T08:58:34;3.10;1.00
25512;DHT22;13414;44.534;18.700;2024-01-30T09:01:01;3.20;1.00
25512;DHT22;13414;44.534;18.700;2024-01-30T09:03:31;3.30;1.00
25512;DHT22;13414;44.534;18.700;2024-01-30T09:05:58;3.40;1.00
25512;DHT22;13414;44.534;18.700;2024-01-30T09:08:26;3.60;1.00
25512;DHT22;13414;44.534;18.700;2024-01-30T09:10:53;3.40;1.00
25512;DHT22;13414;44.534;18.700;2024-01-30T09:13:21;3.40;1.00
25512;DHT22;13414;44.534;18.700;2024-01-30T09:15:50;3.50;1.00
25512;DHT22;13414;44.534;18.700;2024-01-30T09:18:18;3.70;1.00
25512;DHT22;13414;44.534;18.700;2024-01-30T09:20:46;3.80;1.00
25512;DHT22;13414;44.534;18.700;2024-01-30T09:23:13;3.80;1.00
25512;DHT22;13414;44.534;18.700;2024-01-30T09:25:41;3.90;1.00
25512;DHT22;13414;44.534;18.700;2024-01-30T09:28:08;3.90;1.00
25512;DHT22;13414;44.534;18.700;2024-01-30T09:30:36;4.00;1.00
25512;DHT22;13414;44.534;18.700;2024-01-30T09:33:05;4.10;1.00
25512;DHT22;13414;44.534;18.700;2024-01-30T09:35:38;4.20;1.00
25512;DHT22;13414;44.534;18.700;2024-01-30T09:38:07;4.20;1.00
25512;DHT22;13414;44.534;18.700;2024-01-30T09:40:38;4.40;1.00
25512;DHT22;13414;44.534;18.700;2024-01-30T09:43:17;4.50;1.00
25512;DHT22;13414;44.534;18.700;2024-01-30T09:45:51;4.60;1.00
25512;DHT22;13414;44.534;18.700;2024-01-30T09:48:47;4.70;1.00
25512;DHT22;13414;44.534;18.700;2024-01-30T09:51:18;4.90;1.00
25512;DHT22;13414;44.534;18.700;2024-01-30T09:53:46;4.90;1.00
25512;DHT22;13414;44.534;18.700;2024-01-30T09:56:14;5.00;1.00
25512;DHT22;13414;44.534;18.700;2024-01-30T09:58:42;5.10;1.00
25512;DHT22;13414;44.534;18.700;2024-01-30T10:01:10;5.20;1.00
25512;DHT22;13414;44.534;18.700;2024-01-30T10:03:37;5.30;1.00
25512;DHT22;13414;44.534;18.700;2024-01-30T10:06:07;5.40;1.00
25512;DHT22;13414;44.534;18.700;2024-01-30T10:08:35;5.50;1.00
25512;DHT22;13414;44.534;18.700;2024-01-30T10:11:03;5.50;1.00
25512;DHT22;13414;44.534;18.700;2024-01-30T10:13:30;5.60;1.00
25512;DHT22;13414;44.534;18.700;2024-01-30T10:15:58;5.70;1.00
25512;DHT22;13414;44.534;18.700;2024-01-30T10:18:25;5.70;1.00
25512;DHT22;13414;44.534;18.700;2024-01-30T10:20:53;5.80;1.00
25512;DHT22;13414;44.534;18.700;2024-01-30T10:23:22;6.00;1.00
25512;DHT22;13414;44.534;18.700;2024-01-30T10:25:51;6.10;1.00
25512;DHT22;13414;44.534;18.700;2024-01-30T10:28:19;6.20;1.00
25512;DHT22;13414;44.534;18.700;2024-01-30T10:30:57;6.20;1.00
25512;DHT22;13414;44.534;18.700;2024-01-30T10:33:25;6.30;1.00
25512;DHT22;13414;44.534;18.700;2024-01-30T10:35:55;6.30;1.00
25512;DHT22;13414;44.534;18.700;2024-01-30T10:38:29;6.40;1.00
25512;DHT22;13414;44.534;18.700;2024-01-30T10:40:57;6.50;1.00
25512;DHT22;13414;44.534;18.700;2024-01-30T10:43:30;6.40;1.00
25512;DHT22;13414;44.534;18.700;2024-01-30T10:46:08;6.20;1.00
25512;DHT22;13414;44.534;18.700;2024-01-30T10:48:42;6.20;1.00
25512;DHT22;13414;44.534;18.700;2024-01-30T10:51:13;6.50;1.00
25512;DHT22;13414;44.534;18.700;2024-01-30T10:53:44;6.50;1.00
25512;DHT22;13414;44.534;18.700;2024-01-30T10:56:15;6.60;1.00
25512;DHT22;13414;44.534;18.700;2024-01-30T10:58:43;6.60;1.00
25512;DHT22;13414;44.534;18.700;2024-01-30T11:01:11;6.60;1.00
25512;DHT22;13414;44.534;18.700;2024-01-30T11:03:40;6.80;1.00
25512;DHT22;13414;44.534;18.700;2024-01-30T11:06:11;6.90;1.00
25512;DHT22;13414;44.534;18.700;2024-01-30T11:08:40;7.00;1.00
25512;DHT22;13414;44.534;18.700;2024-01-30T11:11:10;7.10;1.00
25512;DHT22;13414;44.534;18.700;2024-01-30T11:13:38;7.00;1.00
25512;DHT22;13414;44.534;18.700;2024-01-30T11:16:06;7.00;1.00
25512;DHT22;13414;44.534;18.700;2024-01-30T11:18:35;7.10;1.00
25512;DHT22;13414;44.534;18.700;2024-01-30T11:21:05;7.20;1.00
25512;DHT22;13414;44.534;18.700;2024-01-30T11:23:34;7.20;1.00
25512;DHT22;13414;44.534;18.700;2024-01-30T11:26:02;7.20;1.00
25512;DHT22;13414;44.534;18.700;2024-01-30T11:28:38;7.30;1.00
25512;DHT22;13414;44.534;18.700;2024-01-30T11:31:06;7.30;1.00
25512;DHT22;13414;44.534;18.700;2024-01-30T11:33:34;7.30;1.00
25512;DHT22;13414;44.534;18.700;2024-01-30T11:36:02;7.30;1.00
25512;DHT22;13414;44.534;18.700;2024-01-30T11:38:33;7.30;1.00
25512;DHT22;13414;44.534;18.700;2024-01-30T11:41:00;7.40;1.00
25512;DHT22;13414;44.534;18.700;2024-01-30T11:43:28;7.30;1.00
25512;DHT22;13414;44.534;18.700;2024-01-30T11:45:57;7.40;1.00
25512;DHT22;13414;44.534;18.700;2024-01-30T11:48:26;7.50;1.00
25512;DHT22;13414;44.534;18.700;2024-01-30T11:50:54;7.60;1.00
25512;DHT22;13414;44.534;18.700;2024-01-30T11:53:23;7.70;1.00
25512;DHT22;13414;44.534;18.700;2024-01-30T11:55:50;7.80;1.00
25512;DHT22;13414;44.534;18.700;2024-01-30T11:58:18;7.90;1.00
25512;DHT22;13414;44.534;18.700;2024-01-30T12:00:53;7.80;1.00
25512;DHT22;13414;44.534;18.700;2024-01-30T12:03:23;7.80;1.00
25512;DHT22;13414;44.534;18.700;2024-01-30T12:05:55;7.80;1.00
25512;DHT22;13414;44.534;18.700;2024-01-30T12:08:24;7.80;1.00
25512;DHT22;13414;44.534;18.700;2024-01-30T12:10:56;7.70;1.00
25512;DHT22;13414;44.534;18.700;2024-01-30T12:13:25;7.80;1.00
25512;DHT22;13414;44.534;18.700;2024-01-30T12:15:53;7.90;1.00
25512;DHT22;13414;44.534;18.700;2024-01-30T12:18:23;8.00;1.00
25512;DHT22;13414;44.534;18.700;2024-01-30T12:20:57;8.10;1.00
25512;DHT22;13414;44.534;18.700;2024-01-30T12:23:26;8.10;1.00
25512;DHT22;13414;44.534;18.700;2024-01-30T12:25:54;8.10;1.00
25512;DHT22;13414;44.534;18.700;2024-01-30T12:28:22;8.20;1.00
25512;DHT22;13414;44.534;18.700;2024-01-30T12:30:49;8.30;1.00
25512;DHT22;13414;44.534;18.700;2024-01-30T12:33:17;8.30;1.00
25512;DHT22;13414;44.534;18.700;2024-01-30T12:35:49;8.30;1.00
25512;DHT22;13414;44.534;18.700;2024-01-30T12:38:19;8.20;1.00
25512;DHT22;13414;44.534;18.700;2024-01-30T12:40:47;8.20;1.00
25512;DHT22;13414;44.534;18.700;2024-01-30T12:43:15;8.20;1.00
25512;DHT22;13414;44.534;18.700;2024-01-30T12:45:42;8.20;1.00
25512;DHT22;13414;44.534;18.700;2024-01-30T12:48:10;8.20;1.00
25512;DHT22;13414;44.534;18.700;2024-01-30T12:50:37;8.30;1.00
25512;DHT22;13414;44.534;18.700;2024-01-30T12:53:06;8.30;1.00
25512;DHT22;13414;44.534;18.700;2024-01-30T12:55:35;8.40;1.00
25512;DHT22;13414;44.534;18.700;2024-01-30T12:58:02;8.40;1.00
25512;DHT22;13414;44.534;18.700;2024-01-30T13:00:30;8.30;1.00
25512;DHT22;13414;44.534;18.700;2024-01-30T13:02:57;8.30;1.00
25512;DHT22;13414;44.534;18.700;2024-01-30T13:05:25;8.40;1.00
25512;DHT22;13414;44.534;18.700;2024-01-30T13:07:52;8.40;1.00
25512;DHT22;13414;44.534;18.700;2024-01-30T13:10:23;8.50;1.00
25512;DHT22;13414;44.534;18.700;2024-01-30T13:12:51;8.60;1.00
25512;DHT22;13414;44.534;18.700;2024-01-30T13:15:18;8.60;1.00
25512;DHT22;13414;44.534;18.700;2024-01-30T13:17:45;8.60;1.00
25512;DHT22;13414;44.534;18.700;2024-01-30T13:20:14;8.60;1.00
25512;DHT22;13414;44.534;18.700;2024-01-30T13:22:46;8.60;1.00
25512;DHT22;13414;44.534;18.700;2024-01-30T13:25:14;8.70;1.00
25512;DHT22;13414;44.534;18.700;2024-01-30T13:27:43;8.70;1.00
25512;DHT22;13414;44.534;18.700;2024-01-30T13:30:11;8.70;1.00
25512;DHT22;13414;44.534;18.700;2024-01-30T13:32:40;8.80;1.00
25512;DHT22;13414;44.534;18.700;2024-01-30T13:35:10;9.00;1.00
25512;DHT22;13414;44.534;18.700;2024-01-30T13:37:37;8.90;1.00
25512;DHT22;13414;44.534;18.700;2024-01-30T13:40:09;8.90;1.00
25512;DHT22;13414;44.534;18.700;2024-01-30T13:42:37;8.80;1.00
25512;DHT22;13414;44.534;18.700;2024-01-30T13:45:09;9.00;1.00
25512;DHT22;13414;44.534;18.700;2024-01-30T13:47:37;9.00;1.00
25512;DHT22;13414;44.534;18.700;2024-01-30T13:50:05;9.00;1.00
25512;DHT22;13414;44.534;18.700;2024-01-30T13:52:34;9.00;1.00
25512;DHT22;13414;44.534;18.700;2024-01-30T13:55:01;9.00;1.00
25512;DHT22;13414;44.534;18.700;2024-01-30T13:57:30;9.00;1.00
25512;DHT22;13414;44.534;18.700;2024-01-30T14:00:01;9.00;1.00
25512;DHT22;13414;44.534;18.700;2024-01-30T14:02:42;9.20;1.00
25512;DHT22;13414;44.534;18.700;2024-01-30T14:05:14;9.20;1.00
25512;DHT22;13414;44.534;18.700;2024-01-30T14:07:42;9.00;1.00
25512;DHT22;13414;44.534;18.700;2024-01-30T14:10:10;8.90;1.00
25512;DHT22;13414;44.534;18.700;2024-01-30T14:12:38;8.90;1.00
25512;DHT22;13414;44.534;18.700;2024-01-30T14:15:06;8.90;1.00
25512;DHT22;13414;44.534;18.700;2024-01-30T14:17:35;8.90;1.00
25512;DHT22;13414;44.534;18.700;2024-01-30T14:20:05;8.80;1.00
25512;DHT22;13414;44.534;18.700;2024-01-30T14:22:34;9.00;1.00
25512;DHT22;13414;44.534;18.700;2024-01-30T14:25:01;9.00;1.00
25512;DHT22;13414;44.534;18.700;2024-01-30T14:27:29;8.80;1.00
25512;DHT22;13414;44.534;18.700;2024-01-30T14:29:57;8.80;1.00
25512;DHT22;13414;44.534;18.700;2024-01-30T14:32:25;8.70;1.00
25512;DHT22;13414;44.534;18.700;2024-01-30T14:34:52;8.70;1.00
25512;DHT22;13414;44.534;18.700;2024-01-30T14:37:21;8.70;1.00
25512;DHT22;13414;44.534;18.700;2024-01-30T14:39:49;8.60;1.00
25512;DHT22;13414;44.534;18.700;2024-01-30T14:42:16;8.60;1.00
25512;DHT22;13414;44.534;18.700;2024-01-30T14:44:44;8.50;1.00
25512;DHT22;13414;44.534;18.700;2024-01-30T14:47:11;8.50;1.00
25512;DHT22;13414;44.534;18.700;2024-01-30T14:49:39;8.50;1.00
25512;DHT22;13414;44.534;18.700;2024-01-30T14:52:06;8.40;1.00
25512;DHT22;13414;44.534;18.700;2024-01-30T14:54:38;8.40;1.00
25512;DHT22;13414;44.534;18.700;2024-01-30T14:57:05;8.40;1.00
25512;DHT22;13414;44.534;18.700;2024-01-30T14:59:34;8.30;1.00
25512;DHT22;13414;44.534;18.700;2024-01-30T15:02:02;8.30;1.00
25512;DHT22;13414;44.534;18.700;2024-01-30T15:04:30;8.20;1.00
25512;DHT22;13414;44.534;18.700;2024-01-30T15:06:57;8.20;1.00
25512;DHT22;13414;44.534;18.700;2024-01-30T15:09:25;8.10;1.00
25512;DHT22;13414;44.534;18.700;2024-01-30T15:11:54;8.00;1.00
25512;DHT22;13414;44.534;18.700;2024-01-30T15:14:21;8.00;1.00
25512;DHT22;13414;44.534;18.700;2024-01-30T15:16:48;7.90;1.00
25512;DHT22;13414;44.534;18.700;2024-01-30T15:19:18;7.90;1.00
25512;DHT22;13414;44.534;18.700;2024-01-30T15:21:46;7.80;1.00
25512;DHT22;13414;44.534;18.700;2024-01-30T15:24:13;7.60;1.00
25512;DHT22;13414;44.534;18.700;2024-01-30T15:26:44;7.60;1.00
25512;DHT22;13414;44.534;18.700;2024-01-30T15:29:12;7.50;1.00
25512;DHT22;13414;44.534;18.700;2024-01-30T15:31:40;7.30;1.00
25512;DHT22;13414;44.534;18.700;2024-01-30T15:34:07;7.30;1.00
25512;DHT22;13414;44.534;18.700;2024-01-30T15:36:35;7.10;1.00
25512;DHT22;13414;44.534;18.700;2024-01-30T15:39:02;7.00;1.00
25512;DHT22;13414;44.534;18.700;2024-01-30T15:41:31;6.80;1.00
25512;DHT22;13414;44.534;18.700;2024-01-30T15:43:59;6.80;1.00
25512;DHT22;13414;44.534;18.700;2024-01-30T15:46:30;6.80;1.00